Time;durP1;ratioP1;P1;durP2;ratioP2;P2;SDS_P1;SDS_P2;PMS_P1;PMS_P2;Temp;Humidity;BMP_temperature;BMP_pressure;BME280_temperature;BME280_humidity;BME280_pressure;Samples;Min_cycle;Max_cycle;Signal;HPM_P1;HPM_P2
2023/12/04 00:01:37;;;;;;;5.50;4.35;;;;;;;;;;5093173;28;20109;-25
2023/12/04 00:04:03;;;;;;;4.43;3.60;;;20.30;52.50;;;;;;5093530;28;20048;-26
2023/12/04 00:06:32;;;;;;;4.97;3.92;;;20.60;63.40;;;;;;5093336;28;20047;-26
2023/12/04 00:08:59;;;;;;;4.97;3.67;;;;;;;;;;5093397;28;20554;-32
2023/12/04 00:11:26;;;;;;;4.22;3.45;;;19.50;43.30;;;;;;5087552;28;20410;-28
2023/12/04 00:13:53;;;;;;;4.45;3.80;;;;;;;;;;5073154;28;20044;-32
2023/12/04 00:16:20;;;;;;;4.65;3.55;;;19.70;63.50;;;;;;5072722;28;20087;-27
2023/12/04 00:18:47;;;;;;;4.28;3.85;;;20.30;63.60;;;;;;5073056;28;20045;-27
2023/12/04 00:21:14;;;;;;;4.70;4.10;;;;;;;;;;5073010;28;20098;-27
2023/12/04 00:23:42;;;;;;;4.38;3.88;;;20.00;63.60;;;;;;5073339;28;20052;-25
2023/12/04 00:26:09;;;;;;;4.13;3.30;;;20.30;64.10;;;;;;5085409;28;20060;-32
2023/12/04 00:28:37;;;;;;;4.30;3.58;;;19.90;44.70;;;;;;5081507;28;20048;-27
2023/12/04 00:31:04;;;;;;;4.53;3.75;;;20.00;63.60;;;;;;5072613;28;20056;-31
2023/12/04 00:33:31;;;;;;;4.03;3.47;;;19.70;61.20;;;;;;5072838;28;20493;-31
2023/12/04 00:35:58;;;;;;;4.60;3.50;;;20.70;64.10;;;;;;5072975;28;20414;-30
2023/12/04 00:38:25;;;;;;;4.30;3.78;;;20.50;60.20;;;;;;5093317;28;20052;-29
2023/12/04 00:40:53;;;;;;;4.50;3.90;;;19.40;63.80;;;;;;5092531;28;20463;-29
2023/12/04 00:43:20;;;;;;;4.72;3.53;;;19.80;63.60;;;;;;5092833;28;20088;-33
2023/12/04 00:45:47;;;;;;;4.35;3.80;;;;;;;;;;5074936;28;20456;-27
2023/12/04 00:48:14;;;;;;;4.93;3.60;;;19.50;63.70;;;;;;5072281;28;20398;-30
2023/12/04 00:50:41;;;;;;;4.75;3.72;;;;;;;;;;5072415;28;20068;-29
2023/12/04 00:53:08;;;;;;;4.55;3.63;;;19.90;64.00;;;;;;5072501;28;20053;-33
2023/12/04 00:55:34;;;;;;;4.65;3.50;;;19.50;63.90;;;;;;5072368;28;20097;-30
2023/12/04 00:58:03;;;;;;;4.10;3.40;;;19.20;63.90;;;;;;5072232;28;20448;-32
2023/12/04 01:00:30;;;;;;;4.25;3.70;;;;;;;;;;5073283;28;20048;-28
2023/12/04 01:02:57;;;;;;;4.95;3.50;;;19.40;63.80;;;;;;5072332;28;20105;-28
2023/12/04 01:05:23;;;;;;;4.40;3.90;;;20.00;61.60;;;;;;5072261;28;20048;-24
2023/12/04 01:07:51;;;;;;;4.00;3.42;;;;;;;;;;5072302;28;20105;-31
2023/12/04 01:10:18;;;;;;;4.13;3.40;;;20.20;61.20;;;;;;5072048;28;20068;-30
2023/12/04 01:12:44;;;;;;;4.32;3.60;;;19.30;64.40;;;;;;5072127;28;20048;-32
2023/12/04 01:15:13;;;;;;;4.20;3.70;;;19.50;43.50;;;;;;5072187;28;20117;-27
2023/12/04 01:17:40;;;;;;;4.25;3.42;;;;;;;;;;5074250;28;20090;-27
2023/12/04 01:20:08;;;;;;;4.30;3.53;;;19.10;64.40;;;;;;5092251;28;20052;-29
2023/12/04 01:22:35;;;;;;;4.43;3.53;;;19.40;64.60;;;;;;5091683;28;20093;-26
2023/12/04 01:25:03;;;;;;;5.22;3.88;;;;;;;;;;5091956;28;20040;-28
2023/12/04 01:27:29;;;;;;;5.18;4.05;;;19.80;64.60;;;;;;5092321;28;20051;-25
2023/12/04 01:29:56;;;;;;;5.38;4.00;;;20.40;58.30;;;;;;5091229;28;20051;-27
2023/12/04 01:32:25;;;;;;;4.20;3.47;;;19.70;64.70;;;;;;5092414;28;20089;-25
2023/12/04 01:34:52;;;;;;;4.50;3.47;;;;;;;;;;5081162;28;20057;-28
2023/12/04 01:37:19;;;;;;;4.10;3.50;;;18.20;64.30;;;;;;5083310;28;20052;-31
2023/12/04 01:39:46;;;;;;;5.55;3.72;;;;;;;;;;5092182;28;20059;-27
2023/12/04 01:42:13;;;;;;;3.58;3.10;;;19.40;65.00;;;;;;5091883;28;20052;-29
2023/12/04 01:44:40;;;;;;;4.13;3.40;;;19.20;64.90;;;;;;5091990;28;20113;-29
2023/12/04 01:47:08;;;;;;;3.88;3.47;;;19.30;65.00;;;;;;5091906;28;20447;-30
2023/12/04 01:49:36;;;;;;;3.90;3.50;;;19.70;50.80;;;;;;5091959;28;20097;-30
2023/12/04 01:52:03;;;;;;;3.70;3.15;;;19.80;59.80;;;;;;5087016;28;20497;-28
2023/12/04 01:54:30;;;;;;;4.07;3.50;;;19.50;54.50;;;;;;5091885;28;20052;-34
2023/12/04 01:56:57;;;;;;;3.97;3.28;;;;;;;;;;5091772;28;20048;-29
2023/12/04 01:59:24;;;;;;;4.00;3.47;;;19.40;64.90;;;;;;5091708;28;20097;-31
2023/12/04 02:01:51;;;;;;;4.25;3.10;;;;;;;;;;5091575;28;20554;-28
2023/12/04 02:04:18;;;;;;;4.22;3.03;;;;;;;;;;5091784;28;20428;-28
2023/12/04 02:06:46;;;;;;;4.07;3.40;;;19.00;44.30;;;;;;5089999;28;20462;-27
2023/12/04 02:09:16;;;;;;;3.53;3.22;;;19.20;50.40;;;;;;5091563;28;20094;-26
2023/12/04 02:11:42;;;;;;;3.78;3.15;;;19.00;65.20;;;;;;5091459;28;20489;-32
2023/12/04 02:14:09;;;;;;;4.05;3.50;;;19.50;51.20;;;;;;5091625;28;20044;-29
2023/12/04 02:16:39;;;;;;;4.85;3.58;;;19.10;65.00;;;;;;5091677;28;20105;-26
2023/12/04 02:19:07;;;;;;;4.03;3.60;;;20.00;65.50;;;;;;5091109;28;20048;-32
2023/12/04 02:21:34;;;;;;;4.15;3.58;;;18.60;59.60;;;;;;5091449;28;20527;-29
2023/12/04 02:24:02;;;;;;;4.35;3.70;;;19.30;65.30;;;;;;5080727;28;20048;-25
2023/12/04 02:26:31;;;;;;;3.85;3.15;;;19.00;65.50;;;;;;5071444;28;20048;-25
2023/12/04 02:29:00;;;;;;;3.95;3.35;;;19.10;56.60;;;;;;5073519;28;20048;-32
2023/12/04 02:31:26;;;;;;;4.00;3.58;;;19.00;65.10;;;;;;5074767;28;20456;-30
2023/12/04 02:33:53;;;;;;;4.45;3.60;;;19.80;65.50;;;;;;5074945;28;20532;-32
2023/12/04 02:36:20;;;;;;;3.90;3.17;;;17.60;64.40;;;;;;5079823;28;20051;-30
2023/12/04 02:38:47;;;;;;;3.85;3.33;;;18.90;65.20;;;;;;5095434;28;20055;-30
2023/12/04 02:41:17;;;;;;;4.20;3.70;;;19.00;45.20;;;;;;5095062;28;20044;-28
2023/12/04 02:43:43;;;;;;;4.13;3.35;;;17.90;65.10;;;;;;5094961;28;20052;-29
2023/12/04 02:46:11;;;;;;;4.57;3.50;;;;;;;;;;5095577;28;20052;-25
2023/12/04 02:48:37;;;;;;;4.25;3.50;;;19.40;65.60;;;;;;5089816;28;20098;-33
2023/12/04 02:51:05;;;;;;;4.13;3.50;;;18.60;46.30;;;;;;5074633;28;20048;-27
2023/12/04 02:53:32;;;;;;;3.47;3.17;;;18.70;46.50;;;;;;5074736;28;20098;-28
2023/12/04 02:55:59;;;;;;;4.90;3.65;;;19.60;65.80;;;;;;5074836;28;20078;-30
2023/12/04 02:58:27;;;;;;;5.38;3.40;;;19.00;65.90;;;;;;5074666;28;20200;-26
2023/12/04 03:00:54;;;;;;;4.40;3.35;;;18.20;65.10;;;;;;5074305;28;20052;-25
2023/12/04 03:03:21;;;;;;;4.28;3.60;;;18.50;65.60;;;;;;5080723;28;20460;-25
2023/12/04 03:05:48;;;;;;;3.90;3.28;;;18.60;46.60;;;;;;5074778;28;20048;-24
2023/12/04 03:08:15;;;;;;;4.63;3.75;;;;;;;;;;5074687;28;20110;-28
2023/12/04 03:10:42;;;;;;;3.95;3.25;;;18.70;65.90;;;;;;5074168;28;20102;-24
2023/12/04 03:13:09;;;;;;;4.43;3.60;;;;;;;;;;5074224;28;20456;-27
2023/12/04 03:15:37;;;;;;;4.43;3.60;;;18.30;65.30;;;;;;5092365;28;20109;-24
2023/12/04 03:18:04;;;;;;;4.80;3.85;;;19.00;65.50;;;;;;5093823;28;20094;-25
2023/12/04 03:20:33;;;;;;;4.03;3.60;;;18.50;44.30;;;;;;5094458;28;20052;-29
2023/12/04 03:23:00;;;;;;;4.05;3.45;;;18.60;51.10;;;;;;5094240;28;20500;-24
2023/12/04 03:25:26;;;;;;;4.28;3.25;;;18.60;65.50;;;;;;5087541;28;20496;-24
2023/12/04 03:27:54;;;;;;;4.18;3.30;;;;;;;;;;5073785;28;20090;-27
2023/12/04 03:30:21;;;;;;;4.20;3.25;;;18.80;51.50;;;;;;5074182;28;20049;-30
2023/12/04 03:32:49;;;;;;;4.20;3.30;;;18.70;44.30;;;;;;5075073;28;20048;-29
2023/12/04 03:35:16;;;;;;;3.90;3.10;;;19.60;47.10;;;;;;5074070;28;20044;-27
2023/12/04 03:37:42;;;;;;;4.13;3.20;;;18.40;65.60;;;;;;5089008;28;20052;-30
2023/12/04 03:40:10;;;;;;;3.55;2.92;;;19.90;46.90;;;;;;5092977;28;20105;-30
2023/12/04 03:42:37;;;;;;;4.28;3.05;;;;;;;;;;5093763;28;20683;-29
2023/12/04 03:45:05;;;;;;;3.60;3.00;;;18.50;49.40;;;;;;5094160;28;20493;-28
2023/12/04 03:47:32;;;;;;;3.55;2.90;;;;;;;;;;5094021;28;20048;-27
2023/12/04 03:50:00;;;;;;;3.95;3.05;;;19.20;66.10;;;;;;5085341;28;20044;-29
2023/12/04 03:52:27;;;;;;;3.42;2.92;;;19.20;65.70;;;;;;5073634;28;20098;-32
2023/12/04 03:54:54;;;;;;;3.25;2.60;;;;;;;;;;5073472;28;20044;-28
2023/12/04 03:57:21;;;;;;;3.60;2.80;;;19.20;65.90;;;;;;5073795;28;20106;-24
2023/12/04 03:59:48;;;;;;;5.95;2.95;;;;;;;;;;5073453;28;20041;-27
2023/12/04 04:02:15;;;;;;;3.35;2.88;;;19.00;65.30;;;;;;5073403;28;20052;-30
2023/12/04 04:04:42;;;;;;;3.92;3.25;;;;;;;;;;5073167;28;20115;-32
2023/12/04 04:07:11;;;;;;;4.40;3.00;;;18.70;65.40;;;;;;5089945;28;20043;-31
2023/12/04 04:09:38;;;;;;;4.82;3.13;;;;;;;;;;5093454;28;20048;-29
2023/12/04 04:12:06;;;;;;;3.17;2.80;;;19.00;63.10;;;;;;5073067;28;20095;-30
2023/12/04 04:14:33;;;;;;;3.25;2.70;;;;;;;;;;5073423;28;20060;-30
2023/12/04 04:17:00;;;;;;;3.67;2.70;;;19.50;65.10;;;;;;5073071;28;20048;-28
2023/12/04 04:19:26;;;;;;;3.80;3.08;;;18.60;45.40;;;;;;5073134;28;20086;-30
2023/12/04 04:21:53;;;;;;;5.57;2.83;;;19.30;58.20;;;;;;5073495;28;20052;-28
2023/12/04 04:24:21;;;;;;;3.85;2.90;;;19.50;65.30;;;;;;5076404;28;20055;-29
2023/12/04 04:26:48;;;;;;;4.47;3.13;;;19.00;65.00;;;;;;5093243;28;20044;-30
2023/12/04 04:29:15;;;;;;;3.63;2.97;;;;;;;;;;5092871;28;20090;-28
2023/12/04 04:31:43;;;;;;;3.50;3.03;;;;;;;;;;5092949;28;20056;-26
2023/12/04 04:34:09;;;;;;;3.17;2.63;;;19.10;46.50;;;;;;5092906;28;20105;-26
2023/12/04 04:36:36;;;;;;;3.28;2.80;;;18.50;64.10;;;;;;5092514;28;20047;-25
2023/12/04 04:39:03;;;;;;;3.17;2.75;;;20.00;65.20;;;;;;5083159;28;20052;-24
2023/12/04 04:41:31;;;;;;;3.55;2.72;;;20.10;65.00;;;;;;5085211;28;20558;-30
2023/12/04 04:43:58;;;;;;;3.53;3.00;;;19.30;64.70;;;;;;5092802;28;20125;-30
2023/12/04 04:46:26;;;;;;;2.95;2.40;;;20.60;65.50;;;;;;5092772;28;20431;-30
2023/12/04 04:48:53;;;;;;;3.20;2.83;;;20.10;65.10;;;;;;5092704;28;20044;-30
2023/12/04 04:51:20;;;;;;;3.42;2.70;;;;;;;;;;5092568;28;20048;-27
2023/12/04 04:53:48;;;;;;;3.80;3.00;;;19.90;64.90;;;;;;5092673;28;20048;-29
2023/12/04 04:56:15;;;;;;;3.38;2.88;;;19.80;64.40;;;;;;5079039;28;20048;-31
2023/12/04 04:58:43;;;;;;;3.85;2.80;;;19.70;43.50;;;;;;5072607;28;20048;-28
2023/12/04 05:01:10;;;;;;;3.10;2.70;;;20.10;51.00;;;;;;5072466;28;20101;-28
2023/12/04 05:03:37;;;;;;;3.15;2.75;;;19.90;64.40;;;;;;5072290;28;20048;-32
2023/12/04 05:06:05;;;;;;;3.85;3.10;;;19.30;64.40;;;;;;5073609;28;20476;-31
2023/12/04 05:08:32;;;;;;;3.20;2.63;;;;;;;;;;5091608;28;20036;-30
2023/12/04 05:10:59;;;;;;;3.50;2.90;;;20.70;57.70;;;;;;5092453;28;20105;-31
2023/12/04 05:13:25;;;;;;;3.20;2.80;;;18.50;63.60;;;;;;5092244;28;20050;-30
2023/12/04 05:15:54;;;;;;;3.40;2.80;;;19.80;43.40;;;;;;5092320;28;20052;-28
2023/12/04 05:18:21;;;;;;;3.80;2.58;;;;;;;;;;5092532;28;20040;-28
2023/12/04 05:20:49;;;;;;;3.10;2.65;;;19.50;45.00;;;;;;5092091;28;20081;-30
2023/12/04 05:23:16;;;;;;;3.20;2.70;;;19.00;64.20;;;;;;5074467;28;20102;-30
2023/12/04 05:25:42;;;;;;;3.60;2.47;;;18.80;63.80;;;;;;5072136;28;20048;-29
2023/12/04 05:28:09;;;;;;;3.72;2.85;;;20.00;61.80;;;;;;5071747;28;20059;-29
2023/12/04 05:30:36;;;;;;;3.55;2.78;;;19.70;64.20;;;;;;5071850;28;20076;-29
2023/12/04 05:33:04;;;;;;;3.30;2.83;;;19.80;47.50;;;;;;5071645;28;20181;-29
2023/12/04 05:35:33;;;;;;;3.40;3.00;;;19.80;54.50;;;;;;5072231;28;20394;-26
2023/12/04 05:38:01;;;;;;;3.78;2.80;;;;;;;;;;5088622;28;20047;-25
2023/12/04 05:40:28;;;;;;;3.40;2.95;;;19.80;64.50;;;;;;5091931;28;20382;-29
2023/12/04 05:42:55;;;;;;;3.25;2.60;;;20.30;64.40;;;;;;5091873;28;20440;-29
2023/12/04 05:45:22;;;;;;;3.90;3.00;;;18.80;47.60;;;;;;5091836;28;20553;-26
2023/12/04 05:47:48;;;;;;;3.40;2.90;;;19.60;64.10;;;;;;5092014;28;20048;-25
2023/12/04 05:50:17;;;;;;;3.30;2.83;;;19.80;43.30;;;;;;5091968;28;20127;-25
2023/12/04 05:52:44;;;;;;;3.30;2.88;;;18.70;63.60;;;;;;5091802;28;20048;-25
2023/12/04 05:55:11;;;;;;;3.38;2.72;;;19.60;64.20;;;;;;5082183;28;20052;-30
2023/12/04 05:57:39;;;;;;;3.60;2.83;;;20.00;64.10;;;;;;5071715;28;20513;-32
2023/12/04 06:00:12;;;;;;;3.35;2.53;;;20.10;56.60;;;;;;5071359;28;20044;-30
2023/12/04 06:02:39;;;;;;;4.93;2.75;;;;;;;;;;5075889;28;20052;-25
2023/12/04 06:05:07;;;;;;;3.72;3.10;;;;;;;;;;5095946;28;20101;-27
2023/12/04 06:07:35;;;;;;;3.50;2.80;;;19.80;43.30;;;;;;5096179;28;20048;-28
2023/12/04 06:10:04;;;;;;;3.08;2.55;;;19.50;48.30;;;;;;5095656;28;20497;-25
2023/12/04 06:12:31;;;;;;;3.15;2.67;;;19.70;64.00;;;;;;5078467;28;20053;-25
2023/12/04 06:14:58;;;;;;;3.40;2.40;;;20.50;64.60;;;;;;5075851;28;20455;-24
2023/12/04 06:17:25;;;;;;;3.20;2.88;;;20.80;64.60;;;;;;5075466;28;20044;-33
2023/12/04 06:19:52;;;;;;;3.38;2.80;;;20.20;56.10;;;;;;5084203;28;20044;-30
2023/12/04 06:22:21;;;;;;;3.15;2.67;;;19.80;50.00;;;;;;5095503;28;20047;-31
2023/12/04 06:24:50;;;;;;;3.30;2.90;;;19.80;45.90;;;;;;5095546;28;20048;-25
2023/12/04 06:27:19;;;;;;;2.90;2.60;;;20.70;43.80;;;;;;5092020;28;20059;-29
2023/12/04 06:29:46;;;;;;;4.60;2.92;;;19.80;64.10;;;;;;5095422;28;20048;-24
2023/12/04 06:32:14;;;;;;;3.42;2.72;;;20.40;56.00;;;;;;5095392;28;20048;-27
2023/12/04 06:34:41;;;;;;;3.45;2.83;;;20.00;64.60;;;;;;5095294;28;20048;-25
2023/12/04 06:37:10;;;;;;;3.25;2.60;;;20.00;64.20;;;;;;5094541;28;20059;-24
2023/12/04 06:39:37;;;;;;;3.67;2.90;;;;;;;;;;5095044;28;20513;-27
2023/12/04 06:42:06;;;;;;;3.00;2.70;;;19.60;62.60;;;;;;5095198;28;20052;-25
2023/12/04 06:44:34;;;;;;;3.50;2.80;;;19.90;43.30;;;;;;5094654;28;20097;-26
2023/12/04 06:47:01;;;;;;;4.60;2.45;;;19.70;64.00;;;;;;5095170;28;20052;-25
2023/12/04 06:49:29;;;;;;;2.97;2.60;;;20.00;64.40;;;;;;5095080;28;20056;-25
2023/12/04 06:51:56;;;;;;;3.33;2.67;;;;;;;;;;5094754;28;20052;-29
2023/12/04 06:54:23;;;;;;;3.45;3.00;;;;;;;;;;5095069;28;20101;-27
2023/12/04 06:56:50;;;;;;;3.30;2.70;;;18.90;56.80;;;;;;5094951;28;20040;-27
2023/12/04 06:59:20;;;;;;;2.83;2.47;;;19.90;43.20;;;;;;5094905;28;20105;-31
2023/12/04 07:01:47;;;;;;;2.90;2.40;;;;;;;;;;5082005;28;20044;-29
2023/12/04 07:04:20;;;;;;;2.65;2.35;;;20.20;62.20;;;;;;5088804;28;20106;-29
2023/12/04 07:06:47;;;;;;;6.18;3.00;;;19.70;53.60;;;;;;5094707;28;20390;-26
2023/12/04 07:09:14;;;;;;;3.25;2.60;;;20.10;49.60;;;;;;5091211;28;20121;-32
2023/12/04 07:11:41;;;;;;;2.92;2.50;;;20.30;64.30;;;;;;5082956;28;20044;-31
2023/12/04 07:14:08;;;;;;;2.67;2.38;;;;;;;;;;5082435;28;20040;-30
2023/12/04 07:16:41;;;;;;;3.33;2.67;;;20.90;65.00;;;;;;5083081;28;20036;-26
2023/12/04 07:19:09;;;;;;;5.10;2.42;;;19.70;49.80;;;;;;5081970;28;20072;-28
2023/12/04 07:21:36;;;;;;;2.95;2.60;;;;;;;;;;5082804;28;20052;-30
2023/12/04 07:24:03;;;;;;;3.25;2.63;;;19.60;64.30;;;;;;5084757;28;20336;-27
2023/12/04 07:26:31;;;;;;;3.40;2.60;;;19.90;43.20;;;;;;5083832;28;20045;-30
2023/12/04 07:28:58;;;;;;;4.35;2.60;;;;;;;;;;5082160;28;20073;-31
2023/12/04 07:31:26;;;;;;;2.83;2.50;;;19.60;63.90;;;;;;5083984;28;20098;-27
2023/12/04 07:33:54;;;;;;;2.90;2.38;;;20.00;43.30;;;;;;5081842;28;20072;-27
2023/12/04 07:36:22;;;;;;;3.35;2.55;;;;;;;;;;5084136;28;20101;-28
2023/12/04 07:38:50;;;;;;;4.07;2.92;;;;;;;;;;5084040;28;20051;-29
2023/12/04 07:41:18;;;;;;;3.20;2.60;;;20.40;57.50;;;;;;5084616;28;20127;-30
2023/12/04 07:43:45;;;;;;;2.67;2.40;;;20.40;48.80;;;;;;5083487;28;20497;-31
2023/12/04 07:46:13;;;;;;;3.10;2.65;;;;;;;;;;5082184;28;20498;-31
2023/12/04 07:48:40;;;;;;;4.10;2.65;;;20.30;64.30;;;;;;5083886;28;20044;-32
2023/12/04 07:51:09;;;;;;;3.05;2.75;;;19.90;45.20;;;;;;5084662;28;20079;-29
2023/12/04 07:53:37;;;;;;;3.05;2.25;;;;;;;;;;5093229;28;20048;-32
2023/12/04 07:56:04;;;;;;;3.28;2.50;;;19.70;60.10;;;;;;5093402;28;20060;-30
2023/12/04 07:58:31;;;;;;;3.88;2.40;;;;;;;;;;5093751;28;20059;-28
2023/12/04 08:00:59;;;;;;;2.78;2.20;;;19.60;63.80;;;;;;5087250;28;20127;-31
2023/12/04 08:03:26;;;;;;;3.35;2.85;;;;;;;;;;5090450;28;20052;-29
2023/12/04 08:05:53;;;;;;;2.85;2.20;;;21.00;64.70;;;;;;5093510;28;20048;-32
2023/12/04 08:08:21;;;;;;;3.00;2.28;;;20.00;43.40;;;;;;5077049;28;20113;-29
2023/12/04 08:10:48;;;;;;;2.50;2.10;;;19.40;64.10;;;;;;5073303;28;20083;-26
2023/12/04 08:13:15;;;;;;;2.83;2.15;;;19.70;64.00;;;;;;5072680;28;20075;-25
2023/12/04 08:15:42;;;;;;;2.80;2.30;;;19.80;64.00;;;;;;5073277;28;20131;-26
2023/12/04 08:18:09;;;;;;;2.33;2.08;;;19.70;64.30;;;;;;5073247;28;20052;-33
2023/12/04 08:20:36;;;;;;;3.97;2.22;;;;;;;;;;5072956;28;20561;-28
2023/12/04 08:23:03;;;;;;;2.58;2.10;;;20.70;64.70;;;;;;5074233;28;20044;-32
2023/12/04 08:25:32;;;;;;;3.17;2.30;;;20.20;43.40;;;;;;5077125;28;20067;-26
2023/12/04 08:27:59;;;;;;;3.08;2.08;;;21.00;64.40;;;;;;5072825;28;20048;-25
2023/12/04 08:30:28;;;;;;;3.13;2.38;;;;;;;;;;5073022;28;20084;-27
2023/12/04 08:32:55;;;;;;;3.13;2.45;;;;;;;;;;5072747;28;20048;-27
2023/12/04 08:35:22;;;;;;;2.88;2.20;;;21.00;64.30;;;;;;5072499;28;20456;-26
2023/12/04 08:37:48;;;;;;;2.38;2.08;;;21.40;44.40;;;;;;5088646;28;20451;-27
2023/12/04 08:40:15;;;;;;;2.65;2.00;;;19.30;63.10;;;;;;5085607;28;20090;-25
2023/12/04 08:42:44;;;;;;;2.85;2.20;;;20.40;43.20;;;;;;5092866;28;20044;-28
2023/12/04 08:45:11;;;;;;;2.65;2.10;;;19.40;42.60;;;;;;5085950;28;20500;-29
2023/12/04 08:47:37;;;;;;;3.22;2.00;;;20.40;63.60;;;;;;5072614;28;20056;-30
2023/12/04 08:50:05;;;;;;;2.22;2.00;;;20.50;43.10;;;;;;5072132;28;20117;-28
2023/12/04 08:52:32;;;;;;;2.78;2.00;;;20.30;44.10;;;;;;5079717;28;20052;-31
2023/12/04 08:55:00;;;;;;;2.58;2.10;;;19.50;53.50;;;;;;5091979;28;20455;-32
2023/12/04 08:57:26;;;;;;;2.08;1.88;;;20.40;63.80;;;;;;5077802;28;20045;-31
2023/12/04 08:59:55;;;;;;;2.88;2.25;;;20.80;54.20;;;;;;5071893;28;20378;-31
2023/12/04 09:02:21;;;;;;;2.53;2.00;;;20.20;60.00;;;;;;5071652;28;20044;-31
2023/12/04 09:04:49;;;;;;;3.53;2.30;;;;;;;;;;5071570;28;20404;-31
2023/12/04 09:07:15;;;;;;;10.02;2.42;;;21.70;54.90;;;;;;5071934;28;20044;-26
2023/12/04 09:09:43;;;;;;;3.70;2.20;;;21.80;64.30;;;;;;5072107;28;20044;-26
2023/12/04 09:12:10;;;;;;;2.90;2.10;;;20.70;43.00;;;;;;5071763;28;20131;-29
2023/12/04 09:14:37;;;;;;;2.92;1.83;;;;;;;;;;5073530;28;20053;-27
2023/12/04 09:17:06;;;;;;;2.95;2.03;;;20.90;63.80;;;;;;5071757;28;20509;-26
2023/12/04 09:19:33;;;;;;;5.07;2.42;;;20.50;63.80;;;;;;5071995;28;20045;-26
2023/12/04 09:22:00;;;;;;;9.95;2.60;;;;;;;;;;5071617;28;20053;-29
2023/12/04 09:24:27;;;;;;;6.57;2.53;;;20.60;63.60;;;;;;5072173;28;20053;-27
2023/12/04 09:26:55;;;;;;;4.78;2.53;;;;;;;;;;5071953;28;20489;-27
2023/12/04 09:29:23;;;;;;;7.32;2.50;;;21.80;64.10;;;;;;5072556;28;20093;-26
2023/12/04 09:31:51;;;;;;;3.78;2.70;;;19.80;53.00;;;;;;5074834;28;20143;-27
2023/12/04 09:34:20;;;;;;;6.45;2.97;;;21.00;45.90;;;;;;5088764;28;20165;-27
2023/12/04 09:36:48;;;;;;;8.27;3.42;;;20.70;60.70;;;;;;5091164;28;20047;-27
2023/12/04 09:39:15;;;;;;;8.02;3.00;;;21.20;58.30;;;;;;5091111;28;20517;-27
2023/12/04 09:41:42;;;;;;;6.88;3.00;;;20.60;54.00;;;;;;5091963;28;20076;-26
2023/12/04 09:44:09;;;;;;;8.88;2.83;;;20.60;48.40;;;;;;5091760;28;20105;-27
2023/12/04 09:46:36;;;;;;;4.97;2.95;;;20.90;62.30;;;;;;5081839;28;20049;-26
2023/12/04 09:49:03;;;;;;;4.90;2.60;;;21.40;54.40;;;;;;5087278;28;20106;-27
2023/12/04 09:51:31;;;;;;;5.93;2.55;;;20.60;62.40;;;;;;5081371;28;20409;-27
2023/12/04 09:53:58;;;;;;;5.40;2.78;;;21.30;62.70;;;;;;5077899;28;20057;-32
2023/12/04 09:56:25;;;;;;;4.90;2.40;;;;;;;;;;5079934;28;20052;-29
2023/12/04 09:58:54;;;;;;;7.78;2.40;;;21.60;62.40;;;;;;5053945;28;20059;-32
2023/12/04 10:01:21;;;;;;;3.60;2.45;;;;;;;;;;5090271;28;20050;-32
2023/12/04 10:03:48;;;;;;;4.63;2.55;;;20.70;61.80;;;;;;5091592;28;20044;-30
2023/12/04 10:06:17;;;;;;;8.45;2.40;;;20.90;41.50;;;;;;5084250;28;20136;-29
2023/12/04 10:08:45;;;;;;;5.60;2.30;;;20.70;62.20;;;;;;5092663;28;20130;-33
2023/12/04 10:11:13;;;;;;;3.65;2.13;;;20.20;61.70;;;;;;5111549;28;20039;-30
2023/12/04 10:13:41;;;;;;;3.20;2.20;;;20.20;61.60;;;;;;5091366;28;20052;-29
2023/12/04 10:16:09;;;;;;;2.75;2.00;;;21.20;62.40;;;;;;5079383;28;20044;-31
2023/12/04 10:18:35;;;;;;;5.05;2.22;;;21.30;42.30;;;;;;5071600;28;20456;-29
2023/12/04 10:21:03;;;;;;;4.13;1.90;;;20.90;61.90;;;;;;5071249;28;20506;-31
2023/12/04 10:23:38;;;;;;;4.85;2.20;;;20.90;57.10;;;;;;5071046;28;20486;-29
2023/12/04 10:26:07;;;;;;;2.70;1.77;;;20.80;62.00;;;;;;5071352;28;20044;-27
2023/12/04 10:28:34;;;;;;;2.53;1.95;;;;;;;;;;5086805;28;20054;-29
2023/12/04 10:31:01;;;;;;;3.83;2.00;;;21.70;62.80;;;;;;5091294;28;20097;-26
2023/12/04 10:33:28;;;;;;;7.60;2.00;;;;;;;;;;5080532;28;20040;-27
2023/12/04 10:35:56;;;;;;;3.00;1.80;;;21.50;63.30;;;;;;5082757;28;20051;-26
2023/12/04 10:38:23;;;;;;;3.25;2.08;;;21.50;62.40;;;;;;5081552;28;20091;-27
2023/12/04 10:40:50;;;;;;;2.97;2.03;;;20.60;61.90;;;;;;5077809;28;20083;-26
2023/12/04 10:43:19;;;;;;;2.95;1.80;;;21.50;54.40;;;;;;5076159;28;20079;-26
2023/12/04 10:45:47;;;;;;;4.35;2.00;;;21.20;42.00;;;;;;5082191;28;20513;-28
2023/12/04 10:48:14;;;;;;;4.03;1.70;;;20.90;62.80;;;;;;5079989;28;20102;-27
2023/12/04 10:50:43;;;;;;;2.50;1.95;;;21.30;42.10;;;;;;5084730;28;20060;-28
2023/12/04 10:53:12;;;;;;;1.92;1.73;;;21.30;58.90;;;;;;5083727;28;20048;-26
2023/12/04 10:55:39;;;;;;;2.40;1.60;;;;;;;;;;5090832;28;20068;-27
2023/12/04 10:58:07;;;;;;;2.08;1.63;;;;;;;;;;5084470;28;20052;-25
2023/12/04 11:00:35;;;;;;;2.05;1.80;;;21.40;42.00;;;;;;5080835;28;20036;-27
2023/12/04 11:03:05;;;;;;;2.72;1.65;;;21.30;53.80;;;;;;5073595;28;20227;-26
2023/12/04 11:05:32;;;;;;;2.17;1.63;;;21.40;62.20;;;;;;5074265;28;20094;-26
2023/12/04 11:08:00;;;;;;;3.15;2.20;;;;;;;;;;5073904;28;20051;-27
2023/12/04 11:10:28;;;;;;;2.85;1.85;;;;;;;;;;5073819;28;20041;-27
2023/12/04 11:12:57;;;;;;;2.38;1.80;;;21.40;42.00;;;;;;5073736;28;20183;-26
2023/12/04 11:15:25;;;;;;;3.53;1.67;;;21.10;61.90;;;;;;5082139;28;20097;-27
2023/12/04 11:17:56;;;;;;;2.45;1.50;;;21.50;47.60;;;;;;5084303;28;20052;-26
2023/12/04 11:20:23;;;;;;;2.00;1.63;;;21.50;42.10;;;;;;5083713;28;20051;-27
2023/12/04 11:22:50;;;;;;;2.00;1.67;;;;;;;;;;5077190;28;20056;-30
2023/12/04 11:25:17;;;;;;;2.35;1.80;;;;;;;;;;5081233;28;20048;-26
2023/12/04 11:27:44;;;;;;;3.03;1.83;;;;;;;;;;5084557;28;20052;-26
2023/12/04 11:30:13;;;;;;;2.17;1.70;;;22.70;63.00;;;;;;5084182;28;20303;-27
2023/12/04 11:32:45;;;;;;;2.05;1.80;;;21.50;42.00;;;;;;5082809;28;20127;-28
2023/12/04 11:35:17;;;;;;;2.03;1.60;;;21.60;42.10;;;;;;5078256;28;20105;-29
2023/12/04 11:37:44;;;;;;;2.88;1.58;;;21.50;50.10;;;;;;5089491;28;20056;-28
2023/12/04 11:40:13;;;;;;;2.42;1.80;;;21.60;61.90;;;;;;5093778;28;20157;-27
2023/12/04 11:42:40;;;;;;;2.35;1.83;;;20.90;62.50;;;;;;5093635;28;20071;-27
2023/12/04 11:45:07;;;;;;;1.88;1.63;;;21.50;62.70;;;;;;5094130;28;20074;-26
2023/12/04 11:47:49;;;;;;;2.92;1.70;;;21.60;48.20;;;;;;5093689;28;20095;-27
2023/12/04 11:50:18;;;;;;;2.10;1.80;;;21.70;42.10;;;;;;5085779;28;20053;-27
2023/12/04 11:52:45;;;;;;;1.90;1.50;;;21.80;62.90;;;;;;5073125;28;20053;-26
2023/12/04 11:55:12;;;;;;;2.00;1.65;;;21.70;47.40;;;;;;5073548;28;20076;-27
2023/12/04 11:57:39;;;;;;;2.03;1.70;;;21.40;62.60;;;;;;5073461;28;20098;-31
2023/12/04 12:00:14;;;;;;;2.10;1.75;;;21.70;42.00;;;;;;5072883;28;20056;-28
2023/12/04 12:02:41;;;;;;;2.05;1.70;;;21.40;50.70;;;;;;5073385;28;20045;-29
2023/12/04 12:05:08;;;;;;;2.08;1.48;;;22.50;61.80;;;;;;5073370;28;20376;-31
2023/12/04 12:07:37;;;;;;;2.22;1.70;;;21.40;46.10;;;;;;5073794;28;20087;-30
2023/12/04 12:10:04;;;;;;;2.05;1.60;;;21.40;62.00;;;;;;5072751;28;20455;-29
2023/12/04 12:12:31;;;;;;;2.00;1.75;;;;;;;;;;5076781;28;20094;-30
2023/12/04 12:14:58;;;;;;;2.63;1.95;;;22.80;62.50;;;;;;5082092;28;20048;-30
2023/12/04 12:17:26;;;;;;;2.17;1.67;;;;;;;;;;5081011;28;20453;-30
2023/12/04 12:19:52;;;;;;;3.10;1.90;;;22.30;63.00;;;;;;5081550;28;20084;-31
2023/12/04 12:22:19;;;;;;;2.20;1.80;;;21.40;53.50;;;;;;5081359;28;20098;-27
2023/12/04 12:24:47;;;;;;;1.90;1.50;;;21.80;61.80;;;;;;5080787;28;20105;-25
2023/12/04 12:27:15;;;;;;;3.15;1.90;;;;;;;;;;5072084;28;20098;-26
2023/12/04 12:29:41;;;;;;;2.75;1.80;;;20.80;50.80;;;;;;5072178;28;20052;-26
2023/12/04 12:32:08;;;;;;;1.92;1.65;;;21.80;61.90;;;;;;5071266;28;20060;-26
2023/12/04 12:34:36;;;;;;;2.53;1.92;;;21.80;42.10;;;;;;5071980;28;20098;-30
2023/12/04 12:37:05;;;;;;;2.20;1.85;;;21.50;48.90;;;;;;5078780;28;20095;-26
2023/12/04 12:39:32;;;;;;;2.97;1.88;;;;;;;;;;5080461;28;20045;-26
2023/12/04 12:42:00;;;;;;;2.70;1.90;;;21.70;62.10;;;;;;5083360;28;20378;-26
2023/12/04 12:44:27;;;;;;;2.50;1.77;;;21.70;61.70;;;;;;5082804;28;20093;-26
2023/12/04 12:46:55;;;;;;;2.05;1.80;;;21.80;61.70;;;;;;5081052;28;20072;-25
2023/12/04 12:49:22;;;;;;;2.75;1.75;;;;;;;;;;5081499;28;20059;-28
2023/12/04 12:51:49;;;;;;;2.63;1.90;;;;;;;;;;5082999;28;20488;-29
2023/12/04 12:54:16;;;;;;;2.13;1.90;;;;;;;;;;5081825;28;20559;-27
2023/12/04 12:56:43;;;;;;;2.42;1.80;;;22.70;62.40;;;;;;5081227;28;20393;-26
2023/12/04 12:59:11;;;;;;;2.20;1.80;;;21.90;42.00;;;;;;5081783;28;20521;-30
2023/12/04 13:01:38;;;;;;;2.28;1.67;;;;;;;;;;5081160;28;20048;-28
2023/12/04 13:04:05;;;;;;;2.28;1.70;;;21.80;61.60;;;;;;5074830;28;20111;-27
2023/12/04 13:06:33;;;;;;;2.50;1.80;;;;;;;;;;5073155;28;20048;-28
2023/12/04 13:09:01;;;;;;;2.08;1.70;;;;;;;;;;5082780;28;20530;-27
2023/12/04 13:11:28;;;;;;;2.00;1.77;;;22.10;62.20;;;;;;5080491;28;20463;-26